createdAt,value
2023-12-19T00:01:03.423Z,99115.41
2023-12-19T00:03:30.299Z,99114.98
2023-12-19T00:05:57.259Z,99108.70
2023-12-19T00:08:24.048Z,99103.85
2023-12-19T00:10:51.032Z,99103.55
2023-12-19T00:13:17.852Z,99101.05
2023-12-19T00:15:44.823Z,99093.98
2023-12-19T00:18:12.116Z,99085.98
2023-12-19T00:20:38.821Z,99083.53
2023-12-19T00:23:06.380Z,99075.16
2023-12-19T00:25:33.222Z,99073.79
2023-12-19T00:28:03.026Z,99074.14
2023-12-19T00:30:29.704Z,99073.05
2023-12-19T00:32:57.000Z,99064.15
2023-12-19T00:35:24.233Z,99062.92
2023-12-19T00:37:51.038Z,99060.78
2023-12-19T00:40:18.294Z,99063.20
2023-12-19T00:42:45.332Z,99065.24
2023-12-19T00:45:12.617Z,99060.23
2023-12-19T00:47:40.775Z,99060.05
2023-12-19T00:50:10.589Z,99061.79
2023-12-19T00:52:37.396Z,99060.23
2023-12-19T00:55:05.061Z,99063.46
2023-12-19T00:57:32.937Z,99062.50
2023-12-19T00:59:59.736Z,99061.16
2023-12-19T01:02:28.818Z,99063.27
2023-12-19T01:04:58.976Z,99061.52
2023-12-19T01:07:25.817Z,99061.71
2023-12-19T01:09:53.103Z,99067.83
2023-12-19T01:12:20.204Z,99069.13
2023-12-19T01:14:47.022Z,99067.58
2023-12-19T01:17:13.788Z,99067.14
2023-12-19T01:19:40.602Z,99071.66
2023-12-19T01:22:07.453Z,99068.78
2023-12-19T01:24:35.950Z,99064.66
2023-12-19T01:27:03.294Z,99060.98
2023-12-19T01:29:30.567Z,99068.14
2023-12-19T01:31:57.418Z,99071.41
2023-12-19T01:34:24.382Z,99066.30
2023-12-19T01:36:57.067Z,99057.46
2023-12-19T01:39:25.775Z,99061.70
2023-12-19T01:41:52.995Z,99060.23
2023-12-19T01:44:20.639Z,99063.49
2023-12-19T01:46:48.228Z,99075.15
2023-12-19T01:49:15.948Z,99070.14
2023-12-19T01:51:43.489Z,99055.75
2023-12-19T01:54:12.417Z,99047.08
2023-12-19T01:56:40.163Z,99036.23
2023-12-19T01:59:08.074Z,99025.28
2023-12-19T02:01:38.981Z,99018.45
2023-12-19T02:04:06.446Z,99004.70
2023-12-19T02:06:36.304Z,98988.27
2023-12-19T02:09:03.901Z,98994.02
2023-12-19T02:11:30.971Z,99000.64
2023-12-19T02:13:59.924Z,98995.53
2023-12-19T02:16:30.740Z,98988.41
2023-12-19T02:19:05.422Z,98983.95
2023-12-19T02:21:32.880Z,98978.13
2023-12-19T02:24:00.349Z,98973.64
2023-12-19T02:26:28.416Z,98965.41
2023-12-19T02:28:55.635Z,98967.33
2023-12-19T02:31:22.601Z,98976.55
2023-12-19T02:33:49.839Z,98991.42
2023-12-19T02:36:18.247Z,98994.78
2023-12-19T02:38:45.518Z,98992.64
2023-12-19T02:41:12.378Z,98994.30
2023-12-19T02:43:53.312Z,98998.93
2023-12-19T02:46:22.726Z,99002.09
2023-12-19T02:48:49.825Z,99000.60
2023-12-19T02:51:20.166Z,98991.80
2023-12-19T02:53:47.690Z,98977.05
2023-12-19T02:56:14.539Z,98974.11
2023-12-19T02:58:42.390Z,98969.37
2023-12-19T03:01:10.031Z,98964.06
2023-12-19T03:03:37.346Z,98966.18
2023-12-19T03:06:04.647Z,98967.77
2023-12-19T03:08:31.540Z,98965.51
2023-12-19T03:10:59.963Z,98954.98
2023-12-19T03:13:27.065Z,98954.36
2023-12-19T03:15:53.854Z,98947.66
2023-12-19T03:18:26.966Z,98946.23
2023-12-19T03:20:54.155Z,98946.88
2023-12-19T03:23:22.296Z,98940.09
2023-12-19T03:25:49.641Z,98934.73
2023-12-19T03:28:16.933Z,98935.83
2023-12-19T03:30:44.026Z,98944.13
2023-12-19T03:33:11.143Z,98947.66
2023-12-19T03:35:38.213Z,98958.34
2023-12-19T03:38:04.979Z,98958.30
2023-12-19T03:40:31.890Z,98950.36
2023-12-19T03:42:58.667Z,98942.28
2023-12-19T03:45:25.578Z,98925.49
2023-12-19T03:47:52.975Z,98924.02
2023-12-19T03:50:19.792Z,98919.41
2023-12-19T03:52:46.780Z,98920.64
2023-12-19T03:55:33.682Z,98912.85
2023-12-19T03:58:00.849Z,98906.00
2023-12-19T04:00:27.849Z,98899.52
2023-12-19T04:02:54.715Z,98906.05
2023-12-19T04:05:21.745Z,98913.95
2023-12-19T04:07:48.560Z,98916.06
2023-12-19T04:10:15.637Z,98908.79
2023-12-19T04:12:42.517Z,98913.08
2023-12-19T04:15:10.267Z,98923.15
2023-12-19T04:17:37.280Z,98931.48
2023-12-19T04:20:04.828Z,98941.13
2023-12-19T04:22:33.048Z,98939.92
2023-12-19T04:25:00.365Z,98935.66
2023-12-19T04:27:27.427Z,98922.13
2023-12-19T04:29:57.088Z,98923.82
2023-12-19T04:32:25.211Z,98925.25
2023-12-19T04:34:52.055Z,98935.61
2023-12-19T04:37:18.809Z,98936.63
2023-12-19T04:39:46.151Z,98936.42
2023-12-19T04:42:18.701Z,98928.92
2023-12-19T04:44:47.870Z,98922.17
2023-12-19T04:47:14.742Z,98914.84
2023-12-19T04:49:41.982Z,98914.05
2023-12-19T04:52:09.352Z,98904.56
2023-12-19T04:54:36.202Z,98898.99
2023-12-19T04:57:03.153Z,98889.39
2023-12-19T04:59:30.184Z,98883.60
2023-12-19T05:01:57.195Z,98876.97
2023-12-19T05:04:23.987Z,98873.85
2023-12-19T05:06:51.064Z,98883.19
2023-12-19T05:09:20.088Z,98899.34
2023-12-19T05:11:46.847Z,98904.13
2023-12-19T05:14:13.609Z,98906.62
2023-12-19T05:16:40.388Z,98907.14
2023-12-19T05:19:07.267Z,98902.68
2023-12-19T05:21:40.740Z,98896.10
2023-12-19T05:24:10.401Z,98905.50
2023-12-19T05:26:37.450Z,98912.49
2023-12-19T05:29:05.599Z,98905.55
2023-12-19T05:31:32.572Z,98906.48
2023-12-19T05:33:59.504Z,98909.92
2023-12-19T05:36:26.525Z,98906.79
2023-12-19T05:38:53.272Z,98904.77
2023-12-19T05:41:20.208Z,98903.36
2023-12-19T05:43:47.260Z,98910.79
2023-12-19T05:46:15.451Z,98915.77
2023-12-19T05:48:42.375Z,98922.06
2023-12-19T05:51:09.643Z,98924.38
2023-12-19T05:53:38.769Z,98923.19
2023-12-19T05:56:06.783Z,98923.27
2023-12-19T05:58:34.356Z,98916.62
2023-12-19T06:01:02.158Z,98911.63
2023-12-19T06:03:29.122Z,98912.10
2023-12-19T06:05:56.494Z,98910.88
2023-12-19T06:08:24.182Z,98910.92
2023-12-19T06:11:20.872Z,98911.09
2023-12-19T06:13:47.860Z,98900.89
2023-12-19T06:16:37.105Z,98897.88
2023-12-19T06:19:05.874Z,98897.02
2023-12-19T06:21:34.269Z,98900.23
2023-12-19T06:24:01.141Z,98900.02
2023-12-19T06:26:27.933Z,98896.77
2023-12-19T06:28:54.689Z,98892.43
2023-12-19T06:31:21.605Z,98896.79
2023-12-19T06:33:48.620Z,98897.63
2023-12-19T06:36:30.425Z,98898.48
2023-12-19T06:38:57.160Z,98890.75
2023-12-19T06:41:23.989Z,98884.50
2023-12-19T06:43:50.974Z,98878.03
2023-12-19T06:46:18.966Z,98868.75
2023-12-19T06:48:46.375Z,98857.74
2023-12-19T06:51:28.274Z,98855.23
2023-12-19T06:53:58.994Z,98855.21
2023-12-19T06:56:30.373Z,98863.53
2023-12-19T06:58:57.416Z,98870.54
2023-12-19T07:01:26.700Z,98868.75
2023-12-19T07:03:53.952Z,98857.66
2023-12-19T07:06:20.812Z,98854.49
2023-12-19T07:08:49.186Z,98854.35
2023-12-19T07:11:18.302Z,98844.20
2023-12-19T07:13:45.626Z,98840.54
2023-12-19T07:16:17.944Z,98843.23
2023-12-19T07:18:48.321Z,98844.45
2023-12-19T07:21:22.960Z,98848.80
2023-12-19T07:23:54.684Z,98850.06
2023-12-19T07:26:21.913Z,98853.29
2023-12-19T07:28:48.755Z,98855.23
2023-12-19T07:31:26.706Z,98855.00
2023-12-19T07:33:59.406Z,98855.34
2023-12-19T07:36:27.513Z,98852.54
2023-12-19T07:38:55.349Z,98856.74
2023-12-19T07:41:24.443Z,98850.80
2023-12-19T07:43:51.515Z,98860.17
2023-12-19T07:46:18.610Z,98860.48
2023-12-19T07:48:45.916Z,98874.31
2023-12-19T07:51:27.817Z,98874.11
2023-12-19T07:53:58.873Z,98862.01
2023-12-19T07:56:25.885Z,98862.56
2023-12-19T07:58:53.680Z,98860.88
2023-12-19T08:01:21.448Z,98856.67
2023-12-19T08:03:48.961Z,98846.67
2023-12-19T08:06:16.674Z,98846.74
2023-12-19T08:08:43.844Z,98845.90
2023-12-19T08:11:10.986Z,98845.83
2023-12-19T08:13:37.742Z,98842.58
2023-12-19T08:16:06.981Z,98842.72
2023-12-19T08:18:34.610Z,98847.91
2023-12-19T08:21:04.886Z,98847.12
2023-12-19T08:23:32.242Z,98844.83
2023-12-19T08:25:59.260Z,98847.23
2023-12-19T08:28:26.213Z,98842.56
2023-12-19T08:30:53.291Z,98841.51
2023-12-19T08:33:21.779Z,98842.94
2023-12-19T08:35:49.868Z,98836.62
2023-12-19T08:38:17.015Z,98836.34
2023-12-19T08:40:43.987Z,98836.65
2023-12-19T08:43:11.036Z,98836.67
2023-12-19T08:45:38.444Z,98833.14
2023-12-19T08:48:06.521Z,98835.07
2023-12-19T08:50:33.714Z,98827.04
2023-12-19T08:53:01.373Z,98824.33
2023-12-19T08:55:28.516Z,98821.19
2023-12-19T08:57:55.642Z,98821.66
2023-12-19T09:00:23.948Z,98818.73
2023-12-19T09:02:50.939Z,98818.05
2023-12-19T09:05:19.653Z,98806.64
2023-12-19T09:07:51.308Z,98801.17
2023-12-19T09:10:19.128Z,98793.86
2023-12-19T09:12:46.503Z,98785.86
2023-12-19T09:15:14.047Z,98779.70
2023-12-19T09:17:41.196Z,98778.83
2023-12-19T09:20:09.815Z,98780.50
2023-12-19T09:22:37.373Z,98777.51
2023-12-19T09:25:04.887Z,98777.64
2023-12-19T09:27:33.234Z,98774.52
2023-12-19T09:30:00.238Z,98773.77
2023-12-19T09:32:27.277Z,98768.61
2023-12-19T09:34:55.211Z,98771.80
2023-12-19T09:37:25.133Z,98769.12
2023-12-19T09:39:54.129Z,98763.07
2023-12-19T09:42:22.219Z,98753.24
2023-12-19T09:44:49.607Z,98756.75
2023-12-19T09:47:25.513Z,98750.45
2023-12-19T09:50:01.636Z,98748.74
2023-12-19T09:52:29.568Z,98739.30
2023-12-19T09:54:56.631Z,98733.55
2023-12-19T09:57:25.835Z,98728.05
2023-12-19T09:59:57.176Z,98731.59
2023-12-19T10:02:26.852Z,98727.91
2023-12-19T10:04:54.699Z,98721.13
2023-12-19T10:07:22.105Z,98712.27
2023-12-19T10:09:59.008Z,98699.36
2023-12-19T10:12:34.418Z,98694.14
2023-12-19T10:15:15.791Z,98691.10
2023-12-19T10:18:13.288Z,98688.36
2023-12-19T10:20:42.380Z,98687.09
2023-12-19T10:23:10.708Z,98679.02
2023-12-19T10:25:45.554Z,98676.89
2023-12-19T10:28:15.961Z,98672.98
2023-12-19T10:30:47.274Z,98670.17
2023-12-19T10:33:17.779Z,98669.03
2023-12-19T10:35:46.734Z,98673.86
2023-12-19T10:38:14.286Z,98668.05
2023-12-19T10:40:41.452Z,98667.86
2023-12-19T10:43:08.578Z,98669.27
2023-12-19T10:45:36.348Z,98664.01
2023-12-19T10:48:03.232Z,98659.98
2023-12-19T10:50:31.378Z,98649.14
2023-12-19T10:53:06.834Z,98637.98
2023-12-19T10:55:47.770Z,98632.39
2023-12-19T10:58:21.730Z,98628.85
2023-12-19T11:00:52.394Z,98621.95
2023-12-19T11:03:24.710Z,98619.73
2023-12-19T11:05:55.603Z,98617.48
2023-12-19T11:08:25.853Z,98611.02
2023-12-19T11:11:00.451Z,98602.16
2023-12-19T11:13:28.910Z,98592.55
2023-12-19T11:16:18.685Z,98585.67
2023-12-19T11:18:57.301Z,98583.88
2023-12-19T11:21:43.436Z,98580.48
2023-12-19T11:24:19.637Z,98578.06
2023-12-19T11:27:19.658Z,98569.14
2023-12-19T11:29:55.304Z,98566.55
2023-12-19T11:32:28.098Z,98562.32
2023-12-19T11:34:56.933Z,98563.98
2023-12-19T11:37:26.318Z,98556.02
2023-12-19T11:39:54.756Z,98553.17
2023-12-19T11:42:41.964Z,98553.29
2023-12-19T11:45:18.070Z,98554.61
2023-12-19T11:47:47.252Z,98556.20
2023-12-19T11:50:40.920Z,98549.34
2023-12-19T11:53:08.703Z,98543.58
2023-12-19T11:55:36.176Z,98543.00
2023-12-19T11:58:14.100Z,98538.46
2023-12-19T12:00:44.786Z,98538.16
2023-12-19T12:03:13.802Z,98534.25
2023-12-19T12:05:41.532Z,98529.10
2023-12-19T12:08:14.623Z,98527.38
2023-12-19T12:10:42.121Z,98527.98
2023-12-19T12:13:09.486Z,98520.32
2023-12-19T12:15:36.505Z,98517.17
2023-12-19T12:18:07.965Z,98518.70
2023-12-19T12:20:36.691Z,98515.96
2023-12-19T12:23:04.952Z,98512.67
2023-12-19T12:25:35.058Z,98510.45
2023-12-19T12:28:09.068Z,98508.44
2023-12-19T12:30:37.408Z,98502.96
2023-12-19T12:33:09.305Z,98505.73
2023-12-19T12:35:38.694Z,98496.89
2023-12-19T12:38:20.796Z,98495.30
2023-12-19T12:41:03.251Z,98488.83
2023-12-19T12:43:35.792Z,98482.30
2023-12-19T12:46:14.334Z,98473.77
2023-12-19T12:48:57.519Z,98461.26
2023-12-19T12:51:25.002Z,98446.52
2023-12-19T12:54:04.261Z,98440.44
2023-12-19T12:56:36.524Z,98441.84
2023-12-19T12:59:08.084Z,98431.70
2023-12-19T13:01:36.534Z,98429.20
2023-12-19T13:04:08.318Z,98428.05
2023-12-19T13:06:44.021Z,98420.00
2023-12-19T13:09:16.498Z,98416.27
2023-12-19T13:11:55.317Z,98410.98
2023-12-19T13:14:23.781Z,98403.23
2023-12-19T13:16:50.891Z,98398.89
2023-12-19T13:19:19.980Z,98393.31
2023-12-19T13:21:47.836Z,98388.64
2023-12-19T13:24:16.229Z,98386.73
2023-12-19T13:26:43.187Z,98384.95
2023-12-19T13:29:10.591Z,98381.60
2023-12-19T13:31:39.238Z,98378.56
2023-12-19T13:34:06.628Z,98371.19
2023-12-19T13:36:33.804Z,98368.91
2023-12-19T13:39:00.832Z,98371.55
2023-12-19T13:41:28.881Z,98362.47
2023-12-19T13:43:56.856Z,98358.23
2023-12-19T13:46:25.380Z,98360.20
2023-12-19T13:48:53.767Z,98357.80
2023-12-19T13:51:22.037Z,98354.76
2023-12-19T13:53:49.061Z,98352.17
2023-12-19T13:56:16.658Z,98343.34
2023-12-19T13:58:43.656Z,98335.56
2023-12-19T14:01:10.752Z,98334.17
2023-12-19T14:03:40.358Z,98325.66
2023-12-19T14:06:07.331Z,98324.95
2023-12-19T14:08:43.816Z,98322.24
2023-12-19T14:11:10.784Z,98315.77
2023-12-19T14:13:39.165Z,98318.77
2023-12-19T14:16:06.676Z,98313.91
2023-12-19T14:18:33.929Z,98313.43
2023-12-19T14:21:01.866Z,98309.56
2023-12-19T14:23:29.083Z,98309.47
2023-12-19T14:25:56.008Z,98305.81
2023-12-19T14:28:23.079Z,98304.45
2023-12-19T14:30:50.410Z,98302.74
2023-12-19T14:33:17.471Z,98301.09
2023-12-19T14:35:44.602Z,98298.81
2023-12-19T14:38:11.772Z,98292.23
2023-12-19T14:40:38.760Z,98291.33
2023-12-19T14:43:07.236Z,98286.84
2023-12-19T14:45:34.296Z,98290.41
2023-12-19T14:48:02.571Z,98289.00
2023-12-19T14:50:29.896Z,98286.30
2023-12-19T14:52:57.029Z,98292.48
2023-12-19T14:55:23.941Z,98292.16
2023-12-19T14:57:50.929Z,98282.52
2023-12-19T15:00:18.496Z,98282.14
2023-12-19T15:02:48.616Z,98281.55
2023-12-19T15:05:15.521Z,98276.81
2023-12-19T15:07:43.524Z,98271.59
2023-12-19T15:10:11.093Z,98267.46
2023-12-19T15:12:39.391Z,98261.95
2023-12-19T15:15:07.819Z,98254.20
2023-12-19T15:17:35.110Z,98257.29
2023-12-19T15:20:02.845Z,98256.91
2023-12-19T15:22:30.095Z,98253.95
2023-12-19T15:28:08.233Z,98249.95
2023-12-19T15:30:41.956Z,98248.95
2023-12-19T15:33:09.484Z,98240.73
2023-12-19T15:35:36.477Z,98233.43
2023-12-19T15:38:03.828Z,98230.90
2023-12-19T15:40:30.823Z,98225.12
2023-12-19T15:42:57.855Z,98229.98
2023-12-19T15:45:24.831Z,98228.36
2023-12-19T15:47:52.220Z,98224.65
2023-12-19T15:50:19.268Z,98220.88
2023-12-19T15:52:46.183Z,98223.80
2023-12-19T15:55:13.445Z,98217.75
2023-12-19T15:57:41.624Z,98216.44
2023-12-19T16:00:10.053Z,98213.39
2023-12-19T16:02:45.625Z,98209.67
2023-12-19T16:05:15.857Z,98205.27
2023-12-19T16:07:43.463Z,98206.97
2023-12-19T16:10:10.757Z,98211.00
2023-12-19T16:12:37.767Z,98200.89
2023-12-19T16:15:06.396Z,98197.16
2023-12-19T16:17:33.309Z,98191.88
2023-12-19T16:20:00.143Z,98180.08
2023-12-19T16:22:28.241Z,98168.29
2023-12-19T16:24:56.629Z,98162.39
2023-12-19T16:27:24.412Z,98160.71
2023-12-19T16:29:52.255Z,98163.91
2023-12-19T16:32:19.382Z,98158.34
2023-12-19T16:34:46.572Z,98153.73
2023-12-19T16:37:14.366Z,98147.33
2023-12-19T16:39:41.242Z,98148.86
2023-12-19T16:42:09.933Z,98140.77
2023-12-19T16:44:39.653Z,98135.09
2023-12-19T16:47:07.011Z,98132.60
2023-12-19T16:49:33.825Z,98134.16
2023-12-19T16:52:01.628Z,98130.91
2023-12-19T16:54:28.755Z,98133.30
2023-12-19T16:56:55.685Z,98139.45
2023-12-19T16:59:22.887Z,98138.61
2023-12-19T17:01:50.242Z,98141.79
2023-12-19T17:04:17.374Z,98138.23
2023-12-19T17:06:46.118Z,98139.81
2023-12-19T17:09:13.225Z,98134.40
2023-12-19T17:11:40.214Z,98133.78
2023-12-19T17:14:07.657Z,98136.35
2023-12-19T17:16:35.200Z,98139.03
2023-12-19T17:19:02.353Z,98135.24
2023-12-19T17:21:29.432Z,98135.63
2023-12-19T17:23:56.383Z,98140.66
2023-12-19T17:26:25.792Z,98140.95
2023-12-19T17:28:52.958Z,98141.06
2023-12-19T17:31:20.358Z,98140.07
2023-12-19T17:33:47.489Z,98139.03
2023-12-19T17:36:14.604Z,98140.52
2023-12-19T17:38:41.547Z,98141.39
2023-12-19T17:41:08.549Z,98138.31
2023-12-19T17:43:35.788Z,98140.73
2023-12-19T17:46:03.201Z,98133.93
2023-12-19T17:48:30.210Z,98127.62
2023-12-19T17:50:57.739Z,98125.44
2023-12-19T17:53:24.816Z,98115.39
2023-12-19T17:55:51.822Z,98111.83
2023-12-19T17:58:18.987Z,98107.73
2023-12-19T18:00:45.865Z,98105.80
2023-12-19T18:03:13.052Z,98103.71
2023-12-19T18:05:40.422Z,98106.61
2023-12-19T18:08:07.518Z,98104.82
2023-12-19T18:10:34.224Z,98107.39
2023-12-19T18:13:01.380Z,98109.69
2023-12-19T18:15:28.342Z,98106.42
2023-12-19T18:17:57.669Z,98113.11
2023-12-19T18:20:25.174Z,98117.79
2023-12-19T18:22:52.797Z,98118.68
2023-12-19T18:25:19.905Z,98117.99
2023-12-19T18:27:46.979Z,98121.05
2023-12-19T18:30:14.583Z,98116.01
2023-12-19T18:32:42.687Z,98114.25
2023-12-19T18:35:10.792Z,98112.35
2023-12-19T18:37:38.551Z,98113.84
2023-12-19T18:40:08.414Z,98112.20
2023-12-19T18:42:36.277Z,98112.91
2023-12-19T18:45:03.558Z,98107.48
2023-12-19T18:47:30.284Z,98110.02
2023-12-19T18:49:57.410Z,98108.08
2023-12-19T18:52:24.661Z,98103.64
2023-12-19T18:54:51.633Z,98101.66
2023-12-19T18:57:19.006Z,98094.92
2023-12-19T18:59:45.901Z,98089.50
2023-12-19T19:02:12.952Z,98089.70
2023-12-19T19:04:40.096Z,98086.08
2023-12-19T19:07:07.274Z,98087.11
2023-12-19T19:09:34.366Z,98085.38
2023-12-19T19:12:01.715Z,98081.35
2023-12-19T19:14:29.468Z,98080.74
2023-12-19T19:16:56.517Z,98075.33
2023-12-19T19:19:24.360Z,98076.32
2023-12-19T19:21:51.329Z,98076.39
2023-12-19T19:24:18.844Z,98078.30
2023-12-19T19:26:46.068Z,98079.63
2023-12-19T19:29:13.000Z,98079.66
2023-12-19T19:31:42.085Z,98077.41
2023-12-19T19:34:11.084Z,98073.13
2023-12-19T19:36:38.604Z,98072.86
2023-12-19T19:39:07.940Z,98074.73
2023-12-19T19:41:40.331Z,98077.42
2023-12-19T19:44:09.587Z,98076.85
2023-12-19T19:46:36.854Z,98076.73
2023-12-19T19:49:05.489Z,98076.35
2023-12-19T19:51:36.348Z,98074.11
2023-12-19T19:54:03.749Z,98072.91
2023-12-19T19:56:30.692Z,98065.86
2023-12-19T19:58:57.655Z,98069.39
2023-12-19T20:01:24.798Z,98065.05
2023-12-19T20:03:52.261Z,98063.57
2023-12-19T20:06:19.341Z,98063.76
2023-12-19T20:08:46.282Z,98057.77
2023-12-19T20:11:13.455Z,98054.42
2023-12-19T20:13:40.263Z,98059.56
2023-12-19T20:16:07.662Z,98057.61
2023-12-19T20:18:35.655Z,98054.66
2023-12-19T20:21:02.765Z,98046.45
2023-12-19T20:23:30.435Z,98046.41
2023-12-19T20:25:57.529Z,98042.05
2023-12-19T20:28:24.819Z,98039.27
2023-12-19T20:30:52.926Z,98035.24
2023-12-19T20:33:20.577Z,98038.23
2023-12-19T20:35:49.975Z,98035.69
2023-12-19T20:38:17.108Z,98028.52
2023-12-19T20:40:44.866Z,98023.29
2023-12-19T20:43:11.885Z,98019.54
2023-12-19T20:45:40.356Z,98019.77
2023-12-19T20:48:08.029Z,98023.69
2023-12-19T20:50:35.090Z,98021.75
2023-12-19T20:53:02.482Z,98018.73
2023-12-19T20:55:30.171Z,98016.96
2023-12-19T20:57:57.010Z,98019.67
2023-12-19T21:00:26.518Z,98011.67
2023-12-19T21:02:53.807Z,98006.60
2023-12-19T21:05:20.822Z,98003.58
2023-12-19T21:07:49.579Z,98001.94
2023-12-19T21:10:17.506Z,97995.60
2023-12-19T21:12:45.056Z,97992.41
2023-12-19T21:15:12.842Z,97985.80
2023-12-19T21:17:40.353Z,97982.39
2023-12-19T21:20:08.300Z,97975.91
2023-12-19T21:22:35.483Z,97967.92
2023-12-19T21:25:02.752Z,97964.65
2023-12-19T21:27:30.468Z,97961.61
2023-12-19T21:29:57.513Z,97958.73
2023-12-19T21:32:24.666Z,97953.30
2023-12-19T21:34:51.877Z,97958.90
2023-12-19T21:37:18.800Z,97951.42
2023-12-19T21:39:47.044Z,97949.96
2023-12-19T21:42:13.813Z,97942.68
2023-12-19T21:44:40.902Z,97942.71
2023-12-19T21:47:07.784Z,97932.55
2023-12-19T21:49:38.637Z,97931.10
2023-12-19T21:52:07.404Z,97925.08
2023-12-19T21:54:34.887Z,97924.16
2023-12-19T21:57:04.958Z,97918.84
2023-12-19T21:59:32.113Z,97906.48
2023-12-19T22:01:59.763Z,97896.89
2023-12-19T22:04:26.731Z,97888.61
2023-12-19T22:06:54.019Z,97883.53
2023-12-19T22:09:21.121Z,97881.23
2023-12-19T22:11:50.345Z,97883.03
2023-12-19T22:14:17.135Z,97881.94
2023-12-19T22:16:44.122Z,97884.02
2023-12-19T22:19:10.978Z,97877.83
2023-12-19T22:21:37.964Z,97879.56
2023-12-19T22:24:05.231Z,97879.73
2023-12-19T22:26:31.957Z,97876.84
2023-12-19T22:28:58.704Z,97878.00
2023-12-19T22:31:25.993Z,97876.27
2023-12-19T22:33:52.832Z,97868.18
2023-12-19T22:36:19.638Z,97861.73
2023-12-19T22:38:46.549Z,97854.61
2023-12-19T22:41:13.345Z,97843.17
2023-12-19T22:43:40.167Z,97849.09
2023-12-19T22:46:07.095Z,97845.50
2023-12-19T22:48:34.005Z,97842.81
2023-12-19T22:51:00.855Z,97840.81
2023-12-19T22:53:28.081Z,97833.02
2023-12-19T22:55:54.929Z,97834.77
2023-12-19T22:58:21.760Z,97834.21
2023-12-19T23:00:48.704Z,97826.71
2023-12-19T23:03:19.524Z,97833.27
2023-12-19T23:05:46.639Z,97829.20
2023-12-19T23:08:13.845Z,97823.98
2023-12-19T23:10:40.837Z,97820.02
2023-12-19T23:13:09.247Z,97819.88
2023-12-19T23:15:37.124Z,97820.36
2023-12-19T23:18:04.927Z,97820.38
2023-12-19T23:20:33.656Z,97818.39
2023-12-19T23:23:01.300Z,97819.05
2023-12-19T23:25:28.132Z,97817.02
2023-12-19T23:27:55.360Z,97810.98
2023-12-19T23:30:23.006Z,97808.16
2023-12-19T23:32:50.393Z,97814.36
2023-12-19T23:35:17.366Z,97809.30
2023-12-19T23:37:44.983Z,97809.31
2023-12-19T23:40:13.088Z,97803.95
2023-12-19T23:42:40.229Z,97801.14
2023-12-19T23:45:07.680Z,97796.04
2023-12-19T23:47:34.905Z,97794.39
2023-12-19T23:50:02.698Z,97797.54
2023-12-19T23:52:30.335Z,97797.52
2023-12-19T23:54:57.238Z,97800.20
2023-12-19T23:57:24.182Z,97797.86
2023-12-19T23:59:51.457Z,97793.42
